Latest Weather Observations for Morawa Airport

IDW60801

Issued at 2:05 pm WST Monday 24 November 2014 (issued every 30 minutes, with the page automatically refreshed every 10 minutes)

About weather observations | Map of weather stations | Latest weather observations for WA | Other Formats
Station Details ID: 008296 Name: MORAWA AIRPORT Lat: -29.20 Lon: 116.02 Height: 271.4 m
Data from the previous 72 hours. | See also: Recent months at Morawa Airport
Date/Time
WST
Temp
°C
App
Temp
°C
Dew
Point
Rel
Hum
%
Delta-T
°C
Wind Press
QNH
hPa
Press
MSL
hPa
Rain
since 9 am
mm
Dir
 
Spd
km/h
Gust
km/h
Spd
kts
Gust
kts
24/02:00pm 31.3 26.4 -0.4 13 15.4 E 15 28 8 15 1015.3 1014.1 0.0
24/01:30pm 31.5 26.6 -0.2 13 15.4 E 15 33 8 18 1015.8 1014.6 0.0
24/01:00pm 30.3 25.8 -0.1 14 14.7 ENE 13 32 7 17 1016.2 1015.0 0.0
24/12:30pm 30.0 25.3 0.6 15 14.4 E 15 32 8 17 1016.5 1015.3 0.0
24/12:00pm 30.6 26.1 1.9 16 14.4 ESE 15 24 8 13 1016.9 1015.7 0.0
24/11:30am 29.4 24.5 1.8 17 13.7 E 17 32 9 17 1017.5 1016.2 0.0
24/11:00am 28.3 23.9 2.5 19 12.9 ESE 15 19 8 10 1018.0 1016.8 0.0
24/10:30am 27.0 22.4 3.5 22 11.8 E 17 28 9 15 1018.4 1017.2 0.0
24/10:00am 26.3 20.7 3.5 23 11.4 E 22 32 12 17 1018.6 1017.4 0.0
24/09:30am 25.1 19.8 4.8 27 10.3 E 22 32 12 17 1018.9 1017.7 0.0
24/09:00am 23.7 19.0 5.1 30 9.4 E 19 26 10 14 1019.4 1018.2 0.0
24/08:30am 22.6 17.3 5.1 32 8.8 E 22 28 12 15 1019.7 1018.5 0.0
24/08:00am 21.4 16.6 4.9 34 8.2 E 19 28 10 15 1019.6 1018.4 0.0
24/07:30am 19.7 14.1 5.4 39 7.1 ESE 24 32 13 17 1019.6 1018.4 0.0
24/07:00am 17.7 13.5 5.6 45 5.9 ESE 17 24 9 13 1019.5 1018.3 0.0
24/06:30am 15.4 12.6 6.9 57 4.2 SE 11 17 6 9 1019.3 1018.1 0.0
24/06:00am 13.5 11.6 7.5 67 3.0 S 7 9 4 5 1019.2 1018.0 0.0
24/05:30am 12.4 9.8 7.7 73 2.3 S 11 13 6 7 1018.9 1017.7 0.0
24/05:00am 12.3 10.1 7.8 74 2.2 S 9 15 5 8 1018.7 1017.5 0.0
24/04:30am 12.5 10.3 8.0 74 2.2 S 9 13 5 7 1018.5 1017.3 0.0
24/04:00am 12.7 10.2 8.0 73 2.3 S 11 15 6 8 1018.4 1017.2 0.0
24/03:30am 12.9 10.4 8.0 72 2.5 S 11 15 6 8 1018.3 1017.1 0.0
24/03:00am 13.2 10.7 8.1 71 2.6 S 11 15 6 8 1018.1 1016.9 0.0
24/02:30am 13.6 10.7 8.0 69 2.8 S 13 19 7 10 1018.2 1017.0 0.0
24/02:00am 13.8 10.5 8.0 68 2.9 S 15 19 8 10 1018.2 1017.0 0.0
24/01:30am 13.9 10.6 8.1 68 2.9 S 15 22 8 12 1018.4 1017.2 0.0
24/01:00am 14.2 10.6 8.2 67 3.0 S 17 24 9 13 1018.5 1017.3 0.0
24/12:30am 14.5 10.9 8.2 66 3.2 S 17 20 9 11 1018.7 1017.5 0.0
24/12:00am 14.8 10.7 8.5 66 3.2 S 20 28 11 15 1018.8 1017.6 0.0
 
Date/Time
WST
Temp
°C
App
Temp
°C
Dew
Point
Rel
Hum
%
Delta-T
°C
Wind Press
QNH
hPa
Press
MSL
hPa
Rain
since 9 am
mm
Dir
 
Spd
km/h
Gust
km/h
Spd
kts
Gust
kts
23/11:30pm 15.2 10.3 8.4 64 3.5 S 24 32 13 17 1018.7 1017.5 0.0
23/11:00pm 15.8 11.3 8.5 62 3.8 S 22 30 12 16 1018.7 1017.5 0.0
23/10:30pm 16.4 11.9 8.6 60 4.0 S 22 33 12 18 1018.7 1017.5 0.0
23/10:00pm 17.2 11.3 8.9 58 4.3 S 30 43 16 23 1018.4 1017.2 0.0
23/09:30pm 18.2 11.8 8.7 54 5.0 S 32 44 17 24 1018.1 1016.9 0.0
23/09:00pm 19.6 13.5 8.3 48 5.9 S 30 41 16 22 1017.6 1016.3 0.0
23/08:30pm 20.9 15.8 7.5 42 7.0 S 24 33 13 18 1017.1 1015.9 0.0
23/08:00pm 22.0 16.0 7.0 38 7.8 SSW 28 37 15 20 1016.6 1015.4 0.0
23/07:30pm 24.0 19.4 5.8 31 9.4 S 19 28 10 15 1016.1 1014.9 0.0
23/07:00pm 25.4 20.6 2.8 23 11.1 S 17 22 9 12 1015.6 1014.4 0.0
23/06:30pm 26.5 23.0 3.7 23 11.5 S 11 19 6 10 1015.3 1014.1 0.0
23/06:00pm 27.3 23.0 3.1 21 12.1 S 15 26 8 14 1014.8 1013.6 0.0
23/05:30pm 28.0 23.4 1.5 18 13.0 SSW 15 22 8 12 1014.5 1013.2 0.0
23/05:00pm 28.0 22.9 0.7 17 13.2 S 17 26 9 14 1014.5 1013.2 0.0
23/04:30pm 28.3 24.4 0.9 17 13.3 SSW 11 20 6 11 1014.5 1013.2 0.0
23/04:00pm 28.2 23.6 1.7 18 13.0 SSW 15 32 8 17 1014.4 1013.1 0.0
23/03:30pm 28.7 25.1 2.8 19 13.0 SSE 11 22 6 12 1014.5 1013.2 0.0
23/03:00pm 27.4 22.1 1.8 19 12.5 SSE 19 24 10 13 1014.8 1013.6 0.0
23/02:30pm 27.3 23.7 3.1 21 12.1 SSW 11 22 6 12 1014.9 1013.7 0.0
23/02:00pm 27.1 23.0 2.2 20 12.3 SSE 13 26 7 14 1015.2 1014.0 0.0
23/01:30pm 25.9 22.0 3.2 23 11.3 S 13 28 7 15 1015.5 1014.3 0.0
23/01:00pm 25.5 22.0 3.5 24 11.0 SE 11 24 6 13 1015.7 1014.5 0.0
23/12:30pm 26.2 22.1 4.6 25 11.0 S 15 22 8 12 1016.1 1014.9 0.0
23/12:00pm 24.5 21.0 5.3 29 9.8 SSE 13 24 7 13 1016.5 1015.3 0.0
23/11:30am 23.2 19.5 6.5 34 8.7 SSE 15 24 8 13 1017.1 1015.9 0.0
23/11:00am 23.0 18.5 5.9 33 8.8 SSE 19 30 10 16 1017.7 1016.4 0.0
23/10:30am 22.0 18.5 7.4 39 7.7 SE 15 28 8 15 1018.0 1016.8 0.0
23/10:00am 20.9 17.3 8.2 44 6.7 SSE 17 24 9 13 1018.2 1017.0 0.0
23/09:30am 20.4 16.2 8.4 46 6.3 SSE 20 33 11 18 1018.3 1017.1 0.0
23/09:00am 19.8 15.3 8.5 48 6.0 SSE 22 32 12 17 1018.4 1017.2 0.0
23/08:30am 18.3 13.0 8.6 53 5.1 SSE 26 37 14 20 1018.4 1017.2 0.0
23/08:00am 19.0 13.5 9.2 53 5.2 SSE 28 37 15 20 1018.2 1017.0 0.0
23/07:30am 18.1 13.7 10.5 61 4.1 SSE 24 32 13 17 1017.9 1016.7 0.0
23/07:00am 16.1 12.8 10.8 71 2.9 SSE 19 28 10 15 1017.7 1016.4 0.0
23/06:30am 14.7 12.6 11.1 79 1.9 SSE 13 19 7 10 1017.4 1016.1 0.0
23/06:00am 13.4 12.0 10.8 84 1.4 S 9 13 5 7 1016.8 1015.6 0.0
23/05:30am 12.3 11.2 10.5 89 0.9 S 7 9 4 5 1016.4 1015.2 0.0
23/05:00am 12.1 10.9 10.3 89 0.9 S 7 9 4 5 1016.0 1014.8 0.0
23/04:30am 12.3 11.3 10.2 87 1.1 S 6 7 3 4 1015.6 1014.4 0.0
23/04:00am 12.7 11.5 10.2 85 1.3 S 7 11 4 6 1015.3 1014.1 0.0
23/03:30am 13.2 11.3 10.6 84 1.4 S 11 15 6 8 1015.0 1013.8 0.0
23/03:00am 13.4 11.5 10.4 82 1.6 S 11 15 6 8 1014.9 1013.7 0.0
23/02:30am 13.7 11.7 10.3 80 1.8 S 11 15 6 8 1014.9 1013.7 0.0
23/02:00am 13.9 11.8 9.9 77 2.1 S 11 17 6 9 1014.8 1013.6 0.0
23/01:30am 14.2 11.7 9.8 75 2.3 S 13 17 7 9 1014.8 1013.6 0.0
23/01:00am 14.6 11.8 10.0 74 2.4 S 15 20 8 11 1014.8 1013.6 0.0
23/12:30am 14.8 12.1 10.2 74 2.4 S 15 20 8 11 1014.9 1013.7 0.0
23/12:00am 15.1 12.0 10.3 73 2.6 S 17 22 9 12 1015.1 1013.9 0.0
 
Date/Time
WST
Temp
°C
App
Temp
°C
Dew
Point
Rel
Hum
%
Delta-T
°C
Wind Press
QNH
hPa
Press
MSL
hPa
Rain
since 9 am
mm
Dir
 
Spd
km/h
Gust
km/h
Spd
kts
Gust
kts
22/11:30pm 15.5 12.1 10.5 72 2.7 S 19 24 10 13 1015.3 1014.1 0.0
22/11:00pm 16.0 12.6 10.5 70 2.9 SSW 19 26 10 14 1015.3 1014.1 0.0
22/10:30pm 16.5 13.5 10.6 68 3.2 SSW 17 24 9 13 1015.4 1014.2 0.0
22/10:00pm 17.0 13.6 10.6 66 3.5 SSW 19 28 10 15 1015.6 1014.4 0.0
22/09:30pm 17.6 13.7 10.7 64 3.8 SSW 22 33 12 18 1015.5 1014.3 0.0
22/09:00pm 18.1 14.7 10.5 61 4.1 SSW 19 24 10 13 1015.5 1014.3 0.0
22/08:30pm 18.4 14.7 10.0 58 4.5 SW 20 30 11 16 1015.4 1014.2 0.0
22/08:00pm 19.1 15.0 10.1 56 4.9 SW 22 30 12 16 1015.1 1013.9 0.0
22/07:30pm 19.8 15.7 10.2 54 5.2 SW 22 33 12 18 1014.7 1013.5 0.0
22/07:00pm 20.6 16.2 10.4 52 5.6 SW 24 33 13 18 1014.4 1013.1 0.0
22/06:30pm 21.9 17.4 10.1 47 6.5 SW 24 37 13 20 1014.0 1012.7 0.0
22/06:00pm 23.5 18.7 8.8 39 8.0 SW 24 35 13 19 1013.5 1012.2 0.0
22/05:30pm 24.6 20.5 7.7 34 9.0 SW 19 32 10 17 1013.0 1011.8 0.0
22/05:00pm 24.9 19.4 7.5 33 9.3 WSW 26 35 14 19 1012.7 1011.5 0.0
22/04:30pm 25.4 21.0 6.6 30 9.9 W 19 26 10 14 1012.4 1011.2 0.0
22/04:00pm 26.1 22.1 6.7 29 10.3 SSW 17 30 9 16 1012.4 1011.2 0.0
22/03:30pm 25.2 22.0 4.9 27 10.4 SSW 11 22 6 12 1012.5 1011.3 0.0
22/03:00pm 26.1 22.3 5.7 27 10.6 WSW 15 24 8 13 1012.8 1011.6 0.0
22/02:30pm 26.5 22.1 6.5 28 10.6 SW 19 28 10 15 1013.2 1012.0 0.0
22/02:00pm 24.7 22.2 6.4 31 9.6 W 9 24 5 13 1013.6 1012.3 0.0
22/01:30pm 24.1 21.6 6.4 32 9.2 SSW 9 19 5 10 1013.8 1012.5 0.0
22/01:00pm 23.9 20.4 7.1 34 8.9 SSW 15 30 8 16 1014.0 1012.7 0.0
22/12:30pm 22.9 19.8 7.1 36 8.3 SSW 13 22 7 12 1014.4 1013.1 0.0
22/12:00pm 22.8 20.8 7.0 36 8.3 W 7 15 4 8 1014.6 1013.4 0.0
22/11:30am 22.5 20.4 6.7 36 8.2 SW 7 17 4 9 1014.9 1013.7 0.0
22/11:00am 21.8 19.3 8.3 42 7.2 S 11 22 6 12 1015.2 1014.0 0.0
22/10:30am 21.1 19.0 8.4 44 6.7 SW 9 20 5 11 1015.4 1014.2 0.0
22/10:00am 20.3 18.0 7.3 43 6.7 SW 9 17 5 9 1015.6 1014.4 0.0
22/09:30am 20.2 18.0 7.9 45 6.4 S 9 22 5 12 1015.6 1014.4 0.0
22/09:00am 20.0 17.4 7.7 45 6.4 S 11 17 6 9 1015.7 1014.5 0.0
22/08:30am 18.8 15.8 7.9 49 5.7 S 13 20 7 11 1015.7 1014.5 0.0
22/08:00am 18.4 15.9 8.4 52 5.2 S 11 17 6 9 1015.6 1014.4 0.0
22/07:30am 18.3 16.2 9.6 57 4.6 S 11 19 6 10 1015.4 1014.2 0.0
22/07:00am 17.2 14.8 9.9 62 3.9 SSW 13 17 7 9 1015.3 1014.1 0.0
22/06:30am 16.7 14.6 9.9 64 3.6 SSW 11 15 6 8 1015.0 1013.8 0.0
22/06:00am 16.4 14.9 10.5 68 3.2 S 9 13 5 7 1014.6 1013.4 0.0
22/05:30am 16.1 13.8 10.4 69 3.1 SSW 13 19 7 10 1014.4 1013.1 0.0
22/05:00am 16.1 13.8 10.6 70 3.0 SSW 13 20 7 11 1014.0 1012.7 0.0
22/04:30am 16.3 14.7 11.5 73 2.6 S 11 15 6 8 1013.8 1012.5 0.0
22/04:00am 16.3 14.3 11.5 73 2.6 SSW 13 19 7 10 1013.6 1012.3 0.0
22/03:30am 16.4 14.2 12.0 75 2.4 SSW 15 19 8 10 1013.5 1012.2 0.0
22/03:00am 16.4 14.5 12.9 80 2.0 S 15 19 8 10 1013.2 1012.0 0.0
22/02:30am 16.6 15.0 12.9 79 2.1 SSW 13 20 7 11 1013.5 1012.2 0.0
22/02:00am 16.8 15.7 13.1 79 2.1 SSW 11 17 6 9 1013.5 1012.2 0.0
22/01:30am 16.8 15.3 13.1 79 2.1 SW 13 17 7 9 1013.8 1012.5 0.0
22/01:00am 16.8 15.1 13.5 81 1.9 SW 15 22 8 12 1014.0 1012.7 0.0
22/12:30am 16.8 15.8 14.6 87 1.3 SW 13 20 7 11 1014.0 1012.7 0.0
22/12:00am 16.6 16.1 15.0 90 0.9 SW 11 15 6 8 1014.1 1012.8 0.0
 
Date/Time
WST
Temp
°C
App
Temp
°C
Dew
Point
Rel
Hum
%
Delta-T
°C
Wind Press
QNH
hPa
Press
MSL
hPa
Rain
since 9 am
mm
Dir
 
Spd
km/h
Gust
km/h
Spd
kts
Gust
kts
21/11:30pm 16.9 15.6 14.9 88 1.2 SSW 15 20 8 11 1014.2 1012.9 0.0
21/11:00pm 16.8 15.4 16.5 98 0.2 SSW 19 22 10 12 1014.2 1012.9 0.0
21/10:30pm 17.3 17.0 15.5 89 1.1 WSW 11 15 6 8 1014.3 1013.0 0.0
21/10:00pm 17.3 16.1 15.1 87 1.3 WSW 15 22 8 12 1014.5 1013.2 0.0
21/09:30pm 17.5 16.7 15.1 86 1.4 WSW 13 19 7 10 1014.6 1013.4 0.0
21/09:00pm 17.9 16.8 15.3 85 1.5 W 15 22 8 12 1014.4 1013.1 0.0
21/08:30pm 18.3 16.5 15.4 83 1.7 WSW 19 26 10 14 1014.3 1013.0 0.0
21/08:00pm 19.0 16.6 14.5 75 2.6 WSW 20 30 11 16 1014.0 1012.7 0.0
21/07:30pm 20.2 18.0 13.4 65 3.9 WSW 17 30 9 16 1013.7 1012.4 0.0
21/07:00pm 20.9 18.3 13.1 61 4.5 WSW 19 28 10 15 1013.5 1012.2 0.0
21/06:30pm 22.4 19.4 12.4 53 5.7 WSW 20 32 11 17 1012.9 1011.7 0.0
21/06:00pm 23.8 20.1 11.5 46 7.0 WSW 22 35 12 19 1012.4 1011.2 0.0
21/05:30pm 24.7 20.8 10.9 42 7.8 WSW 22 30 12 16 1012.1 1010.9 0.0
21/05:00pm 25.9 21.5 10.5 38 8.7 SW 24 32 13 17 1011.8 1010.6 0.0
21/04:30pm 26.8 23.1 10.1 35 9.4 W 20 32 11 17 1011.6 1010.4 0.0
21/04:00pm 26.4 21.9 10.1 36 9.2 W 24 33 13 18 1011.7 1010.5 0.0
21/03:30pm 27.1 23.5 9.9 34 9.7 W 19 28 10 15 1011.7 1010.5 0.0
21/03:00pm 27.4 23.9 10.2 34 9.8 WSW 19 32 10 17 1011.8 1010.6 0.0
21/02:30pm 27.9 24.3 9.7 32 10.3 W 19 32 10 17 1011.9 1010.7 0.0

Other Formats:

Comma delimited format used in spreadsheet applications
http://www.bom.gov.au/fwo/IDW60801/IDW60801.94417.axf

JavaScript Object Notation format (JSON) in row-major order
http://www.bom.gov.au/fwo/IDW60801/IDW60801.94417.json